Time;durP1;ratioP1;P1;durP2;ratioP2;P2;SDS_P1;SDS_P2;PMS_P1;PMS_P2;Temp;Humidity;BMP_temperature;BMP_pressure;BME280_temperature;BME280_humidity;BME280_pressure;Samples;Min_cycle;Max_cycle;Signal;HPM_P1;HPM_P2
2020/12/24 00:01:45;;;;;;;8.67;7.87;;;8.20;99.90;;;;;;5044029;28;20248;-79
2020/12/24 00:04:11;;;;;;;9.70;7.47;;;8.10;99.90;;;;;;5045226;28;20220;-79
2020/12/24 00:06:38;;;;;;;9.87;8.70;;;8.20;99.90;;;;;;5043699;28;20202;-80
2020/12/24 00:09:04;;;;;;;9.80;8.27;;;8.10;99.90;;;;;;5043580;28;20240;-80
2020/12/24 00:11:31;;;;;;;8.67;7.40;;;8.10;99.90;;;;;;5043283;28;20226;-80
2020/12/24 00:13:57;;;;;;;8.43;7.53;;;8.10;99.90;;;;;;5043348;28;20206;-79
2020/12/24 00:16:23;;;;;;;9.23;6.70;;;8.00;99.90;;;;;;5042525;28;20206;-81
2020/12/24 00:18:49;;;;;;;7.83;7.03;;;8.00;99.90;;;;;;5043643;28;20232;-81
2020/12/24 00:21:16;;;;;;;6.53;5.80;;;7.90;99.90;;;;;;5037711;28;20884;-83
2020/12/24 00:23:44;;;;;;;9.07;6.27;;;7.80;99.90;;;;;;5026768;28;20213;-80
2020/12/24 00:26:10;;;;;;;6.43;5.77;;;7.80;99.90;;;;;;5023335;28;20618;-80
2020/12/24 00:28:36;;;;;;;8.37;6.07;;;7.80;99.90;;;;;;5023267;28;20207;-85
2020/12/24 00:31:03;;;;;;;6.07;5.17;;;7.90;99.90;;;;;;5024067;28;20227;-78
2020/12/24 00:33:29;;;;;;;7.00;5.60;;;7.90;99.90;;;;;;5025475;28;20210;-87
2020/12/24 00:35:55;;;;;;;5.20;4.67;;;7.90;99.90;;;;;;5035298;28;20668;-83
2020/12/24 00:38:22;;;;;;;4.23;3.83;;;7.80;99.90;;;;;;5028638;28;20210;-84
2020/12/24 00:40:49;;;;;;;4.17;3.83;;;7.80;99.90;;;;;;5024830;28;20206;-82
2020/12/24 00:43:15;;;;;;;4.10;3.50;;;7.80;99.90;;;;;;5024592;28;20209;-82
2020/12/24 00:45:42;;;;;;;4.70;3.73;;;7.80;99.90;;;;;;5024703;28;20198;-83
2020/12/24 00:48:08;;;;;;;3.40;3.10;;;7.80;99.90;;;;;;5022503;28;20294;-78
2020/12/24 00:50:34;;;;;;;3.63;3.13;;;7.90;99.90;;;;;;5024856;28;20242;-83
2020/12/24 00:53:01;;;;;;;3.63;2.67;;;7.80;99.90;;;;;;5031258;28;20202;-81
2020/12/24 00:55:27;;;;;;;3.20;2.90;;;7.90;99.90;;;;;;5030255;28;20206;-81
2020/12/24 00:57:55;;;;;;;3.03;2.60;;;7.80;99.90;;;;;;5031154;28;20330;-87
2020/12/24 01:00:21;;;;;;;4.17;1.80;;;7.70;99.90;;;;;;5030825;28;20241;-84
2020/12/24 01:02:47;;;;;;;2.13;1.80;;;7.60;99.90;;;;;;5029333;28;20202;-86
2020/12/24 01:05:14;;;;;;;2.07;1.67;;;7.50;99.90;;;;;;5029319;28;20214;-80
2020/12/24 01:07:40;;;;;;;3.03;1.70;;;7.40;99.90;;;;;;5029092;28;20293;-89
2020/12/24 01:10:07;;;;;;;2.60;1.63;;;7.30;99.90;;;;;;5030046;28;20218;-87
2020/12/24 01:12:34;;;;;;;3.13;1.57;;;7.20;99.90;;;;;;5033662;28;20261;-89
2020/12/24 01:15:03;;;;;;;3.40;1.60;;;7.20;99.90;;;;;;5030578;28;20206;-90
2020/12/24 01:17:30;;;;;;;4.30;1.97;;;7.10;99.90;;;;;;5029924;28;20217;-87
2020/12/24 01:19:56;;;;;;;3.63;1.47;;;7.10;99.90;;;;;;5029693;28;20214;-85
2020/12/24 01:22:22;;;;;;;2.63;1.33;;;7.00;99.90;;;;;;5029696;28;20210;-85
2020/12/24 01:24:49;;;;;;;2.17;1.37;;;6.90;99.90;;;;;;5029018;28;20206;-88
2020/12/24 01:27:15;;;;;;;3.63;1.50;;;6.90;99.90;;;;;;5029412;28;20888;-88
2020/12/24 01:29:41;;;;;;;5.80;1.90;;;6.90;99.90;;;;;;5032069;28;20203;-78
2020/12/24 01:32:08;;;;;;;5.47;1.87;;;6.90;99.90;;;;;;5033286;28;20227;-83
2020/12/24 01:34:35;;;;;;;2.80;1.37;;;6.80;99.90;;;;;;5033867;28;20217;-81
2020/12/24 01:37:02;;;;;;;6.87;1.80;;;6.80;99.90;;;;;;5032251;28;20202;-93
2020/12/24 01:39:28;;;;;;;2.07;1.20;;;6.70;99.90;;;;;;5033770;28;20266;-89
2020/12/24 01:41:55;;;;;;;3.37;1.53;;;6.60;99.90;;;;;;5032066;28;20204;-87
2020/12/24 01:44:21;;;;;;;8.53;1.93;;;6.60;99.90;;;;;;5026232;28;20209;-90
2020/12/24 01:46:48;;;;;;;4.83;1.60;;;6.60;99.90;;;;;;5028500;28;20209;-82
2020/12/24 01:49:15;;;;;;;6.43;1.67;;;6.60;99.90;;;;;;5031452;28;20234;-87
2020/12/24 01:51:49;;;;;;;2.63;1.70;;;6.60;99.90;;;;;;5032077;28;20245;-79
2020/12/24 01:54:16;;;;;;;4.40;1.83;;;6.60;99.90;;;;;;5026239;28;20206;-79
2020/12/24 01:56:43;;;;;;;3.13;1.27;;;6.60;99.90;;;;;;5025447;28;20202;-80
2020/12/24 01:59:12;;;;;;;3.70;1.57;;;6.60;99.90;;;;;;5025536;28;20234;-79
2020/12/24 02:01:38;;;;;;;6.60;1.50;;;6.60;99.90;;;;;;5027305;28;20209;-79
2020/12/24 02:04:04;;;;;;;4.37;1.80;;;6.60;99.90;;;;;;5026212;28;20203;-78
2020/12/24 02:06:31;;;;;;;3.13;1.53;;;6.60;99.90;;;;;;5025643;28;20246;-78
2020/12/24 02:08:58;;;;;;;5.73;1.83;;;6.60;99.90;;;;;;5026415;28;20207;-79
2020/12/24 02:11:24;;;;;;;3.83;1.50;;;6.60;99.90;;;;;;5026174;28;20874;-79
2020/12/24 02:13:50;;;;;;;3.77;1.60;;;6.60;99.90;;;;;;5025567;28;20272;-81
2020/12/24 02:16:16;;;;;;;2.20;1.20;;;6.50;99.90;;;;;;5025922;28;20273;-81
2020/12/24 02:18:43;;;;;;;4.83;1.50;;;6.50;99.90;;;;;;5026143;28;20202;-80
2020/12/24 02:21:10;;;;;;;2.40;1.50;;;6.50;99.90;;;;;;5032319;28;20194;-78
2020/12/24 02:23:36;;;;;;;7.87;2.27;;;6.50;99.90;;;;;;5046529;28;20201;-79
2020/12/24 02:26:03;;;;;;;2.33;1.20;;;6.50;99.90;;;;;;5044715;28;20198;-79
2020/12/24 02:28:29;;;;;;;2.67;0.90;;;6.40;99.90;;;;;;5045691;28;20209;-79
2020/12/24 02:30:56;;;;;;;2.87;0.97;;;6.30;99.90;;;;;;5045796;28;20617;-87
2020/12/24 02:33:22;;;;;;;2.00;1.03;;;6.20;99.90;;;;;;5044758;28;20248;-78
2020/12/24 02:35:49;;;;;;;4.00;0.70;;;6.10;99.90;;;;;;5046192;28;20210;-84
2020/12/24 02:38:16;;;;;;;4.60;0.60;;;6.00;99.90;;;;;;5047327;28;20245;-87
2020/12/24 02:40:43;;;;;;;2.83;1.00;;;5.90;99.90;;;;;;5045649;28;20535;-88
2020/12/24 02:43:09;;;;;;;2.63;0.70;;;5.90;99.90;;;;;;5048064;28;20293;-84
2020/12/24 02:45:36;;;;;;;2.77;0.90;;;5.80;99.90;;;;;;5047896;28;20259;-83
2020/12/24 02:48:02;;;;;;;3.30;1.17;;;5.80;99.90;;;;;;5046014;28;20267;-82
2020/12/24 02:50:28;;;;;;;1.50;0.60;;;5.70;99.90;;;;;;5046006;28;20218;-78
2020/12/24 02:52:55;;;;;;;1.30;0.50;;;5.60;99.90;;;;;;5045688;28;20273;-79
2020/12/24 02:55:22;;;;;;;2.27;0.50;;;5.60;99.90;;;;;;5044645;28;20198;-79
2020/12/24 02:57:48;;;;;;;0.40;0.40;;;5.50;99.90;;;;;;5045394;28;20238;-79
2020/12/24 03:00:15;;;;;;;4.77;0.80;;;5.50;99.90;;;;;;5044894;28;20244;-79
2020/12/24 03:02:41;;;;;;;0.70;0.50;;;5.40;99.90;;;;;;5045077;28;20205;-79
2020/12/24 03:05:07;;;;;;;4.37;0.80;;;5.30;99.90;;;;;;5044722;28;20198;-82
2020/12/24 03:07:34;;;;;;;1.47;0.60;;;5.20;99.90;;;;;;5047712;28;20256;-83
2020/12/24 03:10:00;;;;;;;2.13;0.50;;;5.20;99.90;;;;;;5047559;28;20209;-79
2020/12/24 03:12:27;;;;;;;0.83;0.70;;;5.10;99.90;;;;;;5047601;28;20346;-88
2020/12/24 03:14:54;;;;;;;1.03;0.70;;;5.10;99.90;;;;;;5047759;28;20202;-89
2020/12/24 03:17:20;;;;;;;2.47;0.63;;;5.10;99.90;;;;;;5043850;28;20190;-80
2020/12/24 03:19:48;;;;;;;2.23;0.63;;;5.00;99.90;;;;;;5043859;28;20198;-83
2020/12/24 03:22:14;;;;;;;3.80;0.80;;;5.00;99.90;;;;;;5027299;28;20256;-79
2020/12/24 03:24:40;;;;;;;5.30;0.80;;;5.00;99.90;;;;;;5023389;28;20210;-78
2020/12/24 03:27:07;;;;;;;2.73;1.10;;;5.10;99.90;;;;;;5023502;28;20242;-79
2020/12/24 03:29:34;;;;;;;1.13;0.70;;;5.10;99.90;;;;;;5023509;28;20268;-80
2020/12/24 03:32:00;;;;;;;2.50;1.23;;;5.10;99.90;;;;;;5023888;28;20317;-79
2020/12/24 03:34:27;;;;;;;1.27;0.60;;;5.00;99.90;;;;;;5024175;28;20195;-78
2020/12/24 03:36:53;;;;;;;1.60;0.60;;;5.00;99.90;;;;;;5023368;28;20816;-78
2020/12/24 03:39:19;;;;;;;1.00;0.60;;;5.00;99.90;;;;;;5023794;28;20959;-78
2020/12/24 03:41:45;;;;;;;2.37;0.50;;;5.00;99.90;;;;;;5024097;28;20229;-78
2020/12/24 03:44:12;;;;;;;1.00;0.70;;;5.00;99.90;;;;;;5023310;28;20261;-81
2020/12/24 03:46:39;;;;;;;1.40;0.57;;;5.10;99.90;;;;;;5023928;28;20210;-79
2020/12/24 03:49:06;;;;;;;0.40;0.40;;;5.10;99.90;;;;;;5024351;28;20218;-79
2020/12/24 03:51:32;;;;;;;1.90;0.60;;;5.10;99.90;;;;;;5022799;28;20342;-79
2020/12/24 03:53:59;;;;;;;5.33;1.70;;;5.10;99.90;;;;;;5024368;28;20325;-78
2020/12/24 03:56:25;;;;;;;2.47;0.63;;;5.10;99.90;;;;;;5024388;28;20244;-80
2020/12/24 03:58:51;;;;;;;0.97;0.60;;;5.10;99.90;;;;;;5023578;28;20227;-79
2020/12/24 04:01:18;;;;;;;1.70;0.60;;;5.10;99.90;;;;;;5023867;28;20595;-79
2020/12/24 04:03:45;;;;;;;1.87;0.60;;;5.10;99.90;;;;;;5023970;28;20253;-79
2020/12/24 04:06:11;;;;;;;2.17;0.73;;;5.10;99.90;;;;;;5023821;28;20195;-79
2020/12/24 04:08:37;;;;;;;2.17;0.60;;;5.10;99.90;;;;;;5024029;28;20206;-78
2020/12/24 04:11:04;;;;;;;0.40;0.40;;;5.10;99.90;;;;;;5023245;28;20653;-81
2020/12/24 04:13:30;;;;;;;5.53;1.00;;;5.20;99.90;;;;;;5024255;28;20202;-78
2020/12/24 04:15:56;;;;;;;4.73;0.70;;;5.20;99.90;;;;;;5023875;28;20312;-78
2020/12/24 04:18:23;;;;;;;4.23;0.70;;;5.20;99.90;;;;;;5022638;28;20210;-79
2020/12/24 04:20:50;;;;;;;2.00;1.50;;;5.20;99.90;;;;;;5027770;28;20509;-79
2020/12/24 04:23:16;;;;;;;1.67;0.50;;;5.10;99.90;;;;;;5043723;28;20198;-79
2020/12/24 04:25:42;;;;;;;2.23;0.50;;;5.10;99.90;;;;;;5042777;28;20206;-79
2020/12/24 04:28:09;;;;;;;4.10;0.80;;;5.20;99.90;;;;;;5043441;28;20209;-78
2020/12/24 04:30:35;;;;;;;2.00;0.60;;;5.20;99.90;;;;;;5043320;28;20213;-79
2020/12/24 04:33:01;;;;;;;1.40;0.70;;;5.20;99.90;;;;;;5042336;28;20229;-79
2020/12/24 04:35:28;;;;;;;1.23;0.60;;;5.20;99.90;;;;;;5043172;28;20640;-81
2020/12/24 04:37:55;;;;;;;2.40;0.60;;;5.30;99.90;;;;;;5043559;28;20817;-80
2020/12/24 04:40:21;;;;;;;2.77;0.60;;;5.30;99.90;;;;;;5042950;28;20190;-81
2020/12/24 04:42:49;;;;;;;2.57;0.63;;;5.20;99.90;;;;;;5043090;28;20198;-81
2020/12/24 04:45:16;;;;;;;2.10;0.67;;;5.30;99.90;;;;;;5043542;28;20571;-79
2020/12/24 04:47:43;;;;;;;2.20;0.70;;;5.30;99.90;;;;;;5042548;28;20197;-84
2020/12/24 04:50:10;;;;;;;1.57;0.53;;;5.30;99.90;;;;;;5043816;28;20229;-83
2020/12/24 04:52:36;;;;;;;4.07;0.77;;;5.30;99.90;;;;;;5043846;28;20225;-81
2020/12/24 04:55:04;;;;;;;1.03;0.70;;;5.30;99.90;;;;;;5042957;28;20221;-79
2020/12/24 04:57:31;;;;;;;2.57;0.80;;;5.30;99.90;;;;;;5043496;28;20245;-82
2020/12/24 04:59:59;;;;;;;1.03;0.40;;;5.20;99.90;;;;;;5043659;28;20206;-79
2020/12/24 05:02:25;;;;;;;3.30;0.90;;;5.20;99.90;;;;;;5043178;28;20309;-82
2020/12/24 05:04:53;;;;;;;2.40;0.83;;;5.20;99.90;;;;;;5042882;28;20217;-80
2020/12/24 05:07:19;;;;;;;2.20;0.70;;;5.20;99.90;;;;;;5042341;28;20198;-80
2020/12/24 05:09:49;;;;;;;1.57;0.70;;;5.20;99.90;;;;;;5047883;28;20198;-88
2020/12/24 05:12:28;;;;;;;0.90;0.50;;;5.20;99.90;;;;;;5050662;28;20256;-86
2020/12/24 05:14:54;;;;;;;2.07;0.50;;;5.20;99.90;;;;;;5050803;28;20229;-88
2020/12/24 05:17:22;;;;;;;0.97;0.50;;;5.20;99.90;;;;;;5049942;28;20205;-88
2020/12/24 05:20:00;;;;;;;1.70;0.60;;;5.10;99.90;;;;;;5050059;28;20825;-87
2020/12/24 05:22:27;;;;;;;0.70;0.50;;;5.20;99.90;;;;;;5050552;28;20205;-87
2020/12/24 05:24:53;;;;;;;0.93;0.70;;;5.20;99.90;;;;;;5050346;28;20237;-86
2020/12/24 05:27:22;;;;;;;1.73;0.50;;;5.20;99.90;;;;;;5050231;28;20197;-88
2020/12/24 05:29:50;;;;;;;1.43;0.60;;;5.20;99.90;;;;;;5049361;28;20909;-87
2020/12/24 05:32:27;;;;;;;1.13;0.40;;;5.20;99.90;;;;;;5050519;28;20833;-87
2020/12/24 05:35:03;;;;;;;1.53;0.60;;;5.30;99.90;;;;;;5050711;28;20198;-88
2020/12/24 05:37:29;;;;;;;2.37;0.60;;;5.30;99.90;;;;;;5050817;28;20194;-88
2020/12/24 05:39:56;;;;;;;4.73;0.70;;;5.30;99.90;;;;;;5050237;28;20219;-87
2020/12/24 05:42:24;;;;;;;3.13;0.80;;;5.30;99.90;;;;;;5050795;28;20194;-87
2020/12/24 05:44:51;;;;;;;1.80;0.70;;;5.40;99.90;;;;;;5049644;28;20202;-87
2020/12/24 05:47:27;;;;;;;3.23;1.10;;;5.40;99.90;;;;;;5050013;28;20206;-87
2020/12/24 05:49:54;;;;;;;0.73;0.67;;;5.30;99.90;;;;;;5049840;28;20222;-88
2020/12/24 05:52:20;;;;;;;1.13;0.90;;;5.30;99.90;;;;;;5050101;28;20249;-86
2020/12/24 05:54:47;;;;;;;5.67;0.97;;;5.40;99.90;;;;;;5049751;28;20194;-86
2020/12/24 05:57:14;;;;;;;2.53;0.80;;;5.40;99.90;;;;;;5048475;28;21082;-86
2020/12/24 05:59:42;;;;;;;2.10;0.70;;;5.30;99.90;;;;;;5049576;28;20930;-87
2020/12/24 06:02:16;;;;;;;2.87;1.00;;;5.40;99.90;;;;;;5049278;28;20209;-88
2020/12/24 06:04:59;;;;;;;1.70;0.77;;;5.30;99.90;;;;;;5048263;28;20639;-88
2020/12/24 06:07:34;;;;;;;2.90;1.17;;;5.30;99.90;;;;;;5050141;28;20194;-85
2020/12/24 06:10:06;;;;;;;3.63;0.90;;;5.30;99.90;;;;;;5049380;28;20289;-85
2020/12/24 06:12:32;;;;;;;4.50;1.03;;;5.30;99.90;;;;;;5049343;28;20233;-86
2020/12/24 06:15:00;;;;;;;1.97;0.93;;;5.30;99.90;;;;;;5051787;28;20287;-88
2020/12/24 06:17:28;;;;;;;1.97;1.07;;;5.30;99.90;;;;;;5052951;28;20657;-87
2020/12/24 06:19:55;;;;;;;2.73;0.90;;;5.30;99.90;;;;;;5052694;28;20202;-83
2020/12/24 06:22:23;;;;;;;2.07;0.97;;;5.40;99.90;;;;;;5035746;28;20202;-85
2020/12/24 06:24:52;;;;;;;4.97;1.10;;;5.40;99.90;;;;;;5033225;28;20211;-87
2020/12/24 06:27:29;;;;;;;3.37;0.90;;;5.30;99.90;;;;;;5032514;28;20211;-88
2020/12/24 06:30:01;;;;;;;4.33;1.10;;;5.40;99.90;;;;;;5034699;28;20211;-88
2020/12/24 06:32:31;;;;;;;1.63;0.80;;;5.30;99.90;;;;;;5033669;28;20211;-88
2020/12/24 06:34:58;;;;;;;2.33;0.60;;;5.30;99.90;;;;;;5032498;28;20213;-86
2020/12/24 06:37:24;;;;;;;4.20;0.80;;;5.30;99.90;;;;;;5032052;28;20207;-83
2020/12/24 06:39:51;;;;;;;2.50;0.70;;;5.40;99.90;;;;;;5032116;28;20203;-86
2020/12/24 06:42:40;;;;;;;3.90;0.73;;;5.40;99.90;;;;;;5032757;28;20249;-88
2020/12/24 06:45:09;;;;;;;3.43;1.00;;;5.40;99.90;;;;;;5032530;28;20214;-87
2020/12/24 06:47:37;;;;;;;2.13;0.73;;;5.40;99.90;;;;;;5032701;28;20630;-86
2020/12/24 06:50:34;;;;;;;2.43;0.90;;;5.50;99.90;;;;;;5032624;28;20215;-88
2020/12/24 06:53:22;;;;;;;3.83;1.00;;;5.50;99.90;;;;;;5027613;28;20229;-78
2020/12/24 06:56:17;;;;;;;5.50;1.47;;;5.50;99.90;;;;;;5027985;28;20634;-82
2020/12/24 06:58:44;;;;;;;1.93;1.07;;;5.60;99.90;;;;;;5030736;28;20238;-78
2020/12/24 07:01:14;;;;;;;2.87;1.00;;;5.60;99.90;;;;;;5024981;28;20195;-79
2020/12/24 07:03:41;;;;;;;2.90;1.40;;;5.60;99.90;;;;;;5025543;28;20213;-78
2020/12/24 07:06:08;;;;;;;1.40;0.67;;;5.70;99.90;;;;;;5025229;28;20214;-79
2020/12/24 07:08:48;;;;;;;2.87;1.20;;;5.70;99.90;;;;;;5024216;28;20213;-78
2020/12/24 07:11:42;;;;;;;6.57;0.90;;;5.70;99.90;;;;;;5024664;28;20211;-78
2020/12/24 07:14:26;;;;;;;2.90;0.90;;;5.70;99.90;;;;;;5025575;28;20207;-80
2020/12/24 07:16:53;;;;;;;1.80;0.80;;;5.60;99.90;;;;;;5025279;28;20206;-78
2020/12/24 07:19:21;;;;;;;4.37;1.13;;;5.60;99.90;;;;;;5024572;28;20198;-78
2020/12/24 07:21:50;;;;;;;6.43;1.33;;;5.70;99.90;;;;;;5024274;28;20210;-79
2020/12/24 07:24:25;;;;;;;5.17;1.57;;;5.60;99.90;;;;;;5025627;28;20206;-79
2020/12/24 07:26:55;;;;;;;3.73;1.10;;;5.60;99.90;;;;;;5024731;28;20198;-79
2020/12/24 07:29:23;;;;;;;3.37;1.70;;;5.60;99.90;;;;;;5025745;28;20203;-80
2020/12/24 07:31:50;;;;;;;4.47;1.30;;;5.60;99.90;;;;;;5027721;28;20409;-82
2020/12/24 07:34:21;;;;;;;3.07;1.10;;;5.60;99.90;;;;;;5028102;28;20217;-80
2020/12/24 07:36:48;;;;;;;5.53;1.63;;;5.60;99.90;;;;;;5026329;28;20202;-80
2020/12/24 07:55:12;;;;;;;6.70;1.53;;;5.80;99.90;;;;;;5908161;23;20198;-78
2020/12/24 07:57:38;;;;;;;7.17;1.27;;;5.80;99.90;;;;;;5006322;28;20270;-82
2020/12/24 08:00:06;;;;;;;9.53;1.80;;;5.80;99.90;;;;;;5006660;28;20251;-79
2020/12/24 08:02:32;;;;;;;8.00;1.23;;;5.90;99.90;;;;;;5006572;28;20199;-79
2020/12/24 08:04:58;;;;;;;6.50;1.37;;;5.90;99.90;;;;;;5005308;28;20269;-77
2020/12/24 08:07:25;;;;;;;6.77;1.40;;;5.90;99.90;;;;;;5004635;28;20601;-79
2020/12/24 08:09:51;;;;;;;8.00;1.40;;;6.00;99.90;;;;;;5005387;28;20199;-78
2020/12/24 08:12:23;;;;;;;9.77;1.57;;;6.00;99.90;;;;;;5004271;28;20648;-77
2020/12/24 08:14:50;;;;;;;7.50;1.30;;;6.00;99.90;;;;;;5005321;28;20778;-78
2020/12/24 08:17:30;;;;;;;12.97;2.40;;;6.10;99.90;;;;;;5004396;28;20206;-78
2020/12/24 08:20:03;;;;;;;10.37;2.13;;;6.10;99.90;;;;;;5004156;28;20199;-78
2020/12/24 08:22:39;;;;;;;12.30;2.13;;;6.10;99.90;;;;;;5021405;28;20250;-78
2020/12/24 08:25:06;;;;;;;13.00;2.30;;;6.10;99.90;;;;;;5023523;28;20199;-81
2020/12/24 08:27:34;;;;;;;15.43;2.10;;;6.20;99.90;;;;;;5026022;28;20249;-84
2020/12/24 08:30:00;;;;;;;12.53;2.43;;;6.30;99.90;;;;;;5026199;28;20245;-82
2020/12/24 08:32:28;;;;;;;14.67;2.40;;;6.30;99.90;;;;;;5027066;28;20233;-83
2020/12/24 08:34:54;;;;;;;13.97;2.77;;;6.40;99.90;;;;;;5027887;28;20202;-80
2020/12/24 08:37:28;;;;;;;9.77;1.87;;;6.50;99.90;;;;;;5026546;28;20525;-82
2020/12/24 08:39:54;;;;;;;15.60;2.43;;;6.50;99.90;;;;;;5024908;28;20211;-81
2020/12/24 08:42:23;;;;;;;10.97;2.27;;;6.60;99.90;;;;;;5023813;28;20199;-78
2020/12/24 08:44:56;;;;;;;8.20;2.20;;;6.70;99.90;;;;;;5023137;28;21010;-78
2020/12/24 08:47:23;;;;;;;13.10;2.13;;;6.70;99.90;;;;;;5023859;28;20245;-81
2020/12/24 08:49:49;;;;;;;14.07;2.77;;;6.70;99.90;;;;;;5023278;28;20191;-79
2020/12/24 08:52:18;;;;;;;10.30;2.67;;;6.70;99.90;;;;;;5022468;28;20222;-78
2020/12/24 08:54:57;;;;;;;17.20;2.03;;;6.80;99.90;;;;;;5022291;28;20226;-79
2020/12/24 08:57:24;;;;;;;8.43;2.30;;;6.80;99.90;;;;;;5023027;28;20325;-80
2020/12/24 08:59:53;;;;;;;11.97;2.03;;;6.90;99.90;;;;;;5021858;28;20210;-77
2020/12/24 09:02:29;;;;;;;7.23;1.60;;;6.90;99.90;;;;;;5022837;28;20234;-79
2020/12/24 09:04:56;;;;;;;15.00;2.50;;;6.90;99.90;;;;;;5023489;28;20624;-82
2020/12/24 09:07:27;;;;;;;9.83;2.17;;;7.00;99.90;;;;;;5022388;28;20198;-80
2020/12/24 09:10:08;;;;;;;13.30;1.93;;;7.00;99.90;;;;;;5021768;28;20621;-79
2020/12/24 09:12:36;;;;;;;15.20;2.93;;;7.00;99.90;;;;;;5022294;28;20237;-79
2020/12/24 09:15:05;;;;;;;6.70;1.97;;;7.10;99.90;;;;;;5024474;28;20543;-84
2020/12/24 09:17:32;;;;;;;14.47;2.07;;;7.10;99.90;;;;;;5026668;28;20212;-81
2020/12/24 09:20:06;;;;;;;11.67;2.70;;;7.00;99.90;;;;;;5028305;28;20202;-84
2020/12/24 09:22:33;;;;;;;11.90;3.03;;;7.10;99.90;;;;;;5007614;28;20209;-83
2020/12/24 09:25:00;;;;;;;9.50;2.13;;;7.10;99.90;;;;;;5003670;28;20595;-85
2020/12/24 09:27:26;;;;;;;8.47;1.43;;;7.10;99.90;;;;;;5003971;28;20495;-82
2020/12/24 09:29:53;;;;;;;7.47;2.00;;;7.10;99.90;;;;;;5003644;28;20203;-80
2020/12/24 09:32:19;;;;;;;8.33;1.70;;;7.00;99.90;;;;;;5004186;28;20227;-84
2020/12/24 09:34:46;;;;;;;7.23;1.37;;;7.00;99.90;;;;;;5006819;28;20288;-84
2020/12/24 09:37:13;;;;;;;9.67;1.60;;;7.10;99.90;;;;;;5007707;28;20195;-84
2020/12/24 09:39:39;;;;;;;8.97;1.53;;;7.00;99.90;;;;;;5006174;28;20214;-88
2020/12/24 09:42:05;;;;;;;5.90;1.37;;;7.10;99.90;;;;;;5005035;28;20199;-84
2020/12/24 09:44:32;;;;;;;7.70;1.40;;;7.10;99.90;;;;;;5005607;28;20219;-85
2020/12/24 09:46:58;;;;;;;5.30;1.40;;;7.20;99.90;;;;;;5009267;28;20223;-86
2020/12/24 09:49:24;;;;;;;6.67;1.47;;;7.20;99.90;;;;;;5008457;28;20211;-83
2020/12/24 09:51:51;;;;;;;5.13;1.10;;;7.10;99.90;;;;;;5010144;28;20234;-79
2020/12/24 09:54:18;;;;;;;6.97;1.43;;;7.20;99.90;;;;;;5009950;28;20207;-83
2020/12/24 09:56:44;;;;;;;7.30;1.57;;;7.10;99.90;;;;;;5011679;28;20230;-84
2020/12/24 09:59:10;;;;;;;5.57;1.40;;;7.10;99.90;;;;;;5012556;28;20199;-80
2020/12/24 10:01:37;;;;;;;7.37;1.40;;;7.10;99.90;;;;;;5011901;28;20203;-80
2020/12/24 10:04:03;;;;;;;2.27;1.00;;;7.10;99.90;;;;;;5009593;28;20259;-81
2020/12/24 10:06:30;;;;;;;9.03;1.80;;;7.00;99.90;;;;;;5011482;28;20199;-85
2020/12/24 10:08:57;;;;;;;10.47;2.43;;;7.10;99.90;;;;;;5011436;28;20211;-85
2020/12/24 10:11:24;;;;;;;7.87;1.33;;;7.10;99.90;;;;;;5011375;28;20203;-82
2020/12/24 10:13:50;;;;;;;3.90;1.00;;;7.20;99.90;;;;;;5011824;28;20250;-85
2020/12/24 10:16:16;;;;;;;6.37;1.10;;;7.20;99.90;;;;;;5008884;28;20203;-79
2020/12/24 10:18:42;;;;;;;6.60;1.20;;;7.30;99.90;;;;;;5006066;28;20203;-79
2020/12/24 10:21:10;;;;;;;6.73;1.40;;;7.30;99.90;;;;;;5013283;28;20364;-80
2020/12/24 10:23:37;;;;;;;12.10;2.63;;;7.30;99.90;;;;;;5027273;28;20294;-77
2020/12/24 10:26:04;;;;;;;7.60;1.63;;;7.30;99.90;;;;;;5024677;28;20206;-78
2020/12/24 10:28:30;;;;;;;8.43;1.73;;;7.40;99.90;;;;;;5025649;28;20211;-78
2020/12/24 10:30:56;;;;;;;10.20;2.47;;;7.50;99.90;;;;;;5026860;28;20260;-78
2020/12/24 10:33:23;;;;;;;7.83;1.73;;;7.50;99.90;;;;;;5024387;28;20218;-77
2020/12/24 10:35:49;;;;;;;7.20;1.50;;;7.60;99.90;;;;;;5025282;28;20241;-81
2020/12/24 10:38:16;;;;;;;4.30;1.60;;;7.70;99.90;;;;;;5024954;28;20199;-78
2020/12/24 10:40:42;;;;;;;6.67;1.67;;;7.70;99.90;;;;;;5025443;28;20199;-78
2020/12/24 10:43:09;;;;;;;7.83;1.20;;;7.70;99.90;;;;;;5025746;28;20203;-78
2020/12/24 10:45:35;;;;;;;9.07;1.97;;;7.70;99.90;;;;;;5025160;28;20207;-78
2020/12/24 10:48:02;;;;;;;10.20;1.33;;;7.80;99.90;;;;;;5025277;28;20226;-80
2020/12/24 10:50:28;;;;;;;12.17;1.90;;;7.80;99.90;;;;;;5025582;28;20202;-77
2020/12/24 10:52:54;;;;;;;6.03;1.57;;;7.80;99.90;;;;;;5024657;28;20222;-77
2020/12/24 10:55:20;;;;;;;6.17;1.93;;;7.80;99.90;;;;;;5024474;28;20206;-78
2020/12/24 10:57:47;;;;;;;6.13;1.40;;;7.80;99.90;;;;;;5025683;28;20256;-79
2020/12/24 11:00:15;;;;;;;4.73;0.97;;;7.70;99.90;;;;;;5023478;28;20199;-80
2020/12/24 11:02:41;;;;;;;5.13;1.70;;;7.60;99.90;;;;;;5024406;28;20677;-77
2020/12/24 11:05:07;;;;;;;3.87;1.50;;;7.50;99.90;;;;;;5024593;28;20876;-78
2020/12/24 11:07:34;;;;;;;2.63;0.70;;;7.50;99.90;;;;;;5023939;28;20206;-78
2020/12/24 11:10:00;;;;;;;3.90;0.90;;;7.50;99.90;;;;;;5024357;28;20264;-78
2020/12/24 11:12:26;;;;;;;5.17;1.00;;;7.50;99.90;;;;;;5023960;28;20304;-80
2020/12/24 11:14:53;;;;;;;6.47;1.33;;;7.50;99.90;;;;;;5023365;28;20202;-79
2020/12/24 11:17:20;;;;;;;5.40;1.03;;;7.50;99.90;;;;;;5016360;28;20214;-80
2020/12/24 11:19:47;;;;;;;5.63;1.27;;;7.50;99.90;;;;;;5001762;28;20211;-79
2020/12/24 11:22:14;;;;;;;7.03;1.20;;;7.50;99.90;;;;;;5002128;28;20199;-79
2020/12/24 11:24:40;;;;;;;5.77;1.10;;;7.50;99.90;;;;;;5002897;28;20222;-79
2020/12/24 11:27:07;;;;;;;3.87;0.77;;;7.50;99.90;;;;;;5000997;28;20216;-79
2020/12/24 11:29:33;;;;;;;8.13;1.50;;;7.60;99.90;;;;;;4999254;28;20215;-78
2020/12/24 11:31:59;;;;;;;5.03;0.93;;;7.70;99.90;;;;;;4999535;28;20234;-80
2020/12/24 11:34:28;;;;;;;6.23;1.63;;;7.60;99.90;;;;;;5002444;28;20638;-79
2020/12/24 11:36:55;;;;;;;3.47;0.80;;;7.50;99.90;;;;;;5000409;28;20249;-83
2020/12/24 11:39:22;;;;;;;4.43;0.90;;;7.40;99.90;;;;;;5001400;28;20386;-80
2020/12/24 11:41:48;;;;;;;4.60;1.27;;;7.40;99.90;;;;;;5000236;28;20204;-80
2020/12/24 11:44:14;;;;;;;7.33;1.67;;;7.30;99.90;;;;;;4998043;28;20223;-81
2020/12/24 11:46:40;;;;;;;10.00;1.83;;;7.30;99.90;;;;;;5001320;28;20223;-82
2020/12/24 11:49:07;;;;;;;6.57;1.60;;;7.30;99.90;;;;;;5005853;28;20659;-80
2020/12/24 11:51:35;;;;;;;7.47;2.10;;;7.40;99.90;;;;;;5005917;28;20904;-80
2020/12/24 11:54:01;;;;;;;6.77;1.50;;;7.30;99.90;;;;;;5005730;28;20290;-84
2020/12/24 11:56:28;;;;;;;6.67;1.33;;;7.30;99.90;;;;;;5005086;28;20231;-88
2020/12/24 11:58:54;;;;;;;4.33;1.20;;;7.30;99.90;;;;;;5004362;28;20219;-85
2020/12/24 12:01:21;;;;;;;3.53;1.23;;;7.30;99.90;;;;;;5005375;28;20222;-85
2020/12/24 12:03:48;;;;;;;7.00;1.90;;;7.30;99.90;;;;;;5005217;28;20218;-79
2020/12/24 12:06:15;;;;;;;7.27;2.20;;;7.30;99.90;;;;;;5004989;28;20218;-86
2020/12/24 12:08:42;;;;;;;8.63;1.70;;;7.30;99.90;;;;;;5005753;28;20637;-85
2020/12/24 12:11:09;;;;;;;7.33;1.70;;;7.20;99.90;;;;;;5007419;28;20261;-83
2020/12/24 12:13:37;;;;;;;9.23;3.10;;;7.10;99.90;;;;;;5001998;28;20231;-85
2020/12/24 12:16:05;;;;;;;7.10;2.37;;;7.00;99.90;;;;;;5004585;28;20199;-83
2020/12/24 12:18:32;;;;;;;8.43;2.40;;;6.90;99.90;;;;;;5009893;28;20225;-91
2020/12/24 12:20:58;;;;;;;14.97;4.93;;;6.80;99.90;;;;;;5009630;28;20276;-87
2020/12/24 12:23:25;;;;;;;82.77;46.07;;;6.80;99.90;;;;;;5005966;28;20250;-81
2020/12/24 12:25:52;;;;;;;10.13;4.40;;;6.70;99.90;;;;;;5004484;28;20571;-82
2020/12/24 12:28:18;;;;;;;8.37;1.87;;;6.60;99.90;;;;;;5004685;28;20277;-83
2020/12/24 12:30:45;;;;;;;9.97;2.47;;;6.60;99.90;;;;;;5005444;28;20215;-81
2020/12/24 12:33:12;;;;;;;7.67;2.60;;;6.50;99.90;;;;;;5005448;28;20686;-82
2020/12/24 12:35:38;;;;;;;7.63;1.87;;;6.50;99.90;;;;;;5002032;28;20786;-85
2020/12/24 12:38:06;;;;;;;11.20;2.90;;;6.50;99.90;;;;;;5005709;28;20211;-87
2020/12/24 12:40:32;;;;;;;14.10;7.03;;;6.60;99.90;;;;;;5006070;28;20226;-86
2020/12/24 12:42:59;;;;;;;9.20;2.57;;;6.60;99.90;;;;;;5005464;28;20211;-82
2020/12/24 12:45:26;;;;;;;13.90;5.50;;;6.60;99.90;;;;;;5005203;28;20219;-84
2020/12/24 12:47:52;;;;;;;11.90;2.57;;;6.60;99.90;;;;;;5000472;28;20238;-83
2020/12/24 12:50:18;;;;;;;14.20;5.23;;;6.70;99.90;;;;;;4998618;28;20214;-79
2020/12/24 12:52:46;;;;;;;12.63;2.77;;;6.70;99.90;;;;;;4999233;28;20971;-80
2020/12/24 12:55:12;;;;;;;13.43;2.43;;;6.80;99.90;;;;;;4998628;28;20210;-79
2020/12/24 12:57:38;;;;;;;16.63;4.30;;;6.80;99.90;;;;;;4999769;28;20215;-79
2020/12/24 13:00:07;;;;;;;23.60;3.70;;;6.90;99.90;;;;;;5001191;28;20214;-79
2020/12/24 13:02:33;;;;;;;17.23;4.63;;;7.00;99.90;;;;;;5001649;28;20214;-80
2020/12/24 13:05:00;;;;;;;13.60;3.20;;;7.00;99.90;;;;;;5002724;28;20235;-80
2020/12/24 13:07:26;;;;;;;6.53;2.00;;;7.00;99.90;;;;;;5002522;28;20207;-79
2020/12/24 13:09:53;;;;;;;3.97;1.20;;;6.90;99.90;;;;;;5002094;28;20285;-78
2020/12/24 13:12:19;;;;;;;5.93;1.90;;;6.70;99.90;;;;;;5002285;28;20246;-78
2020/12/24 13:14:45;;;;;;;3.33;1.20;;;6.50;99.90;;;;;;5002616;28;20276;-80